sensor_id;sensor_type;location;lat;lon;timestamp;P1;P2;P0
73546;PMS7003;61807;48.384;-4.386;2023-04-03T00:00:18;11.00;8.25;5.00
73546;PMS7003;61807;48.384;-4.386;2023-04-03T00:02:44;10.75;6.75;4.75
73546;PMS7003;61807;48.384;-4.386;2023-04-03T00:05:09;8.50;8.50;6.00
73546;PMS7003;61807;48.384;-4.386;2023-04-03T00:07:35;7.25;5.50;3.75
73546;PMS7003;61807;48.384;-4.386;2023-04-03T00:10:00;10.75;6.50;5.00
73546;PMS7003;61807;48.384;-4.386;2023-04-03T00:12:26;9.25;7.00;4.00
73546;PMS7003;61807;48.384;-4.386;2023-04-03T00:14:51;13.00;10.00;7.00
73546;PMS7003;61807;48.384;-4.386;2023-04-03T00:17:17;14.00;9.75;7.00
73546;PMS7003;61807;48.384;-4.386;2023-04-03T00:19:42;14.50;11.50;6.25
73546;PMS7003;61807;48.384;-4.386;2023-04-03T00:22:08;21.00;12.75;9.75
73546;PMS7003;61807;48.384;-4.386;2023-04-03T00:24:33;18.00;13.25;8.25
73546;PMS7003;61807;48.384;-4.386;2023-04-03T00:26:58;13.75;10.75;6.25
73546;PMS7003;61807;48.384;-4.386;2023-04-03T00:29:24;13.00;11.75;5.75
73546;PMS7003;61807;48.384;-4.386;2023-04-03T00:31:49;12.25;9.00;6.00
73546;PMS7003;61807;48.384;-4.386;2023-04-03T00:34:15;11.75;7.25;5.50
73546;PMS7003;61807;48.384;-4.386;2023-04-03T00:36:40;10.25;6.25;5.00
73546;PMS7003;61807;48.384;-4.386;2023-04-03T00:39:06;12.50;8.25;5.00
73546;PMS7003;61807;48.384;-4.386;2023-04-03T00:41:31;9.00;9.00;6.00
73546;PMS7003;61807;48.384;-4.386;2023-04-03T00:43:57;11.50;9.25;6.00
73546;PMS7003;61807;48.384;-4.386;2023-04-03T00:46:22;12.50;9.00;5.00
73546;PMS7003;61807;48.384;-4.386;2023-04-03T00:48:48;5.50;5.50;4.00
73546;PMS7003;61807;48.384;-4.386;2023-04-03T00:51:14;9.25;9.25;5.75
73546;PMS7003;61807;48.384;-4.386;2023-04-03T00:53:46;11.00;6.25;5.00
73546;PMS7003;61807;48.384;-4.386;2023-04-03T00:56:16;7.50;6.25;4.75
73546;PMS7003;61807;48.384;-4.386;2023-04-03T00:58:48;9.75;6.00;4.00
73546;PMS7003;61807;48.384;-4.386;2023-04-03T01:01:35;9.00;6.50;4.50
73546;PMS7003;61807;48.384;-4.386;2023-04-03T01:04:02;9.00;5.25;4.00
73546;PMS7003;61807;48.384;-4.386;2023-04-03T01:06:33;6.25;4.75;4.00
73546;PMS7003;61807;48.384;-4.386;2023-04-03T01:09:01;5.00;4.00;2.00
73546;PMS7003;61807;48.384;-4.386;2023-04-03T01:11:26;4.50;4.50;3.50
73546;PMS7003;61807;48.384;-4.386;2023-04-03T01:13:52;7.25;4.00;3.00
73546;PMS7003;61807;48.384;-4.386;2023-04-03T01:16:18;6.25;4.25;3.25
73546;PMS7003;61807;48.384;-4.386;2023-04-03T01:18:44;10.25;6.25;4.25
73546;PMS7003;61807;48.384;-4.386;2023-04-03T01:26:42;10.50;6.75;3.75
73546;PMS7003;61807;48.384;-4.386;2023-04-03T01:29:08;6.00;5.00;4.00
73546;PMS7003;61807;48.384;-4.386;2023-04-03T01:31:52;4.50;4.00;2.00
73546;PMS7003;61807;48.384;-4.386;2023-04-03T01:34:22;4.25;3.25;3.00
73546;PMS7003;61807;48.384;-4.386;2023-04-03T01:36:48;1.75;1.75;1.50
73546;PMS7003;61807;48.384;-4.386;2023-04-03T01:39:15;2.25;2.25;1.50
73546;PMS7003;61807;48.384;-4.386;2023-04-03T01:41:40;5.00;2.00;1.50
73546;PMS7003;61807;48.384;-4.386;2023-04-03T01:44:06;3.25;2.25;2.00
73546;PMS7003;61807;48.384;-4.386;2023-04-03T01:46:31;3.50;2.00;2.00
73546;PMS7003;61807;48.384;-4.386;2023-04-03T01:48:57;2.25;2.25;2.25
73546;PMS7003;61807;48.384;-4.386;2023-04-03T01:51:23;3.00;3.00;2.00
73546;PMS7003;61807;48.384;-4.386;2023-04-03T01:53:48;3.50;2.00;1.50
73546;PMS7003;61807;48.384;-4.386;2023-04-03T01:56:13;3.25;3.25;2.00
73546;PMS7003;61807;48.384;-4.386;2023-04-03T01:58:39;6.00;4.00;2.00
73546;PMS7003;61807;48.384;-4.386;2023-04-03T02:01:04;4.00;4.00;2.25
73546;PMS7003;61807;48.384;-4.386;2023-04-03T02:03:30;4.00;3.00;2.75
73546;PMS7003;61807;48.384;-4.386;2023-04-03T02:05:56;2.00;2.00;2.00
73546;PMS7003;61807;48.384;-4.386;2023-04-03T02:08:22;2.50;2.00;1.00
73546;PMS7003;61807;48.384;-4.386;2023-04-03T02:10:47;2.75;2.75;2.50
73546;PMS7003;61807;48.384;-4.386;2023-04-03T02:13:14;3.25;2.25;2.00
73546;PMS7003;61807;48.384;-4.386;2023-04-03T02:15:40;2.50;2.50;2.00
73546;PMS7003;61807;48.384;-4.386;2023-04-03T02:18:06;4.75;2.00;1.75
73546;PMS7003;61807;48.384;-4.386;2023-04-03T02:20:32;2.00;2.00;1.00
73546;PMS7003;61807;48.384;-4.386;2023-04-03T02:22:58;4.25;2.00;2.00
73546;PMS7003;61807;48.384;-4.386;2023-04-03T02:25:23;2.25;2.25;2.00
73546;PMS7003;61807;48.384;-4.386;2023-04-03T02:27:49;2.00;2.00;1.50
73546;PMS7003;61807;48.384;-4.386;2023-04-03T02:30:15;5.00;2.00;1.75
73546;PMS7003;61807;48.384;-4.386;2023-04-03T02:32:41;2.50;2.50;2.00
73546;PMS7003;61807;48.384;-4.386;2023-04-03T02:35:08;2.50;1.00;1.00
73546;PMS7003;61807;48.384;-4.386;2023-04-03T02:37:34;2.50;2.50;2.00
73546;PMS7003;61807;48.384;-4.386;2023-04-03T02:40:00;3.00;3.00;2.00
73546;PMS7003;61807;48.384;-4.386;2023-04-03T02:42:26;3.25;3.00;2.00
73546;PMS7003;61807;48.384;-4.386;2023-04-03T02:44:51;7.25;3.00;2.00
73546;PMS7003;61807;48.384;-4.386;2023-04-03T02:47:17;1.75;1.75;1.25
73546;PMS7003;61807;48.384;-4.386;2023-04-03T02:49:42;2.00;2.00;1.50
73546;PMS7003;61807;48.384;-4.386;2023-04-03T02:52:12;1.50;1.50;1.00
73546;PMS7003;61807;48.384;-4.386;2023-04-03T02:54:37;2.00;2.00;1.75
73546;PMS7003;61807;48.384;-4.386;2023-04-03T02:57:03;5.00;2.00;2.00
73546;PMS7003;61807;48.384;-4.386;2023-04-03T02:59:28;2.75;2.75;2.00
73546;PMS7003;61807;48.384;-4.386;2023-04-03T03:01:54;2.50;1.00;1.00
73546;PMS7003;61807;48.384;-4.386;2023-04-03T03:04:20;3.00;3.00;2.00
73546;PMS7003;61807;48.384;-4.386;2023-04-03T03:06:46;3.00;3.00;2.50
73546;PMS7003;61807;48.384;-4.386;2023-04-03T03:09:11;2.75;2.25;2.00
73546;PMS7003;61807;48.384;-4.386;2023-04-03T03:11:38;2.25;2.25;2.00
73546;PMS7003;61807;48.384;-4.386;2023-04-03T03:14:03;4.25;2.00;1.25
73546;PMS7003;61807;48.384;-4.386;2023-04-03T03:16:29;3.00;3.00;2.00
73546;PMS7003;61807;48.384;-4.386;2023-04-03T03:18:55;2.75;2.75;2.50
73546;PMS7003;61807;48.384;-4.386;2023-04-03T03:21:20;6.00;3.00;2.00
73546;PMS7003;61807;48.384;-4.386;2023-04-03T03:23:46;3.00;3.00;3.00
73546;PMS7003;61807;48.384;-4.386;2023-04-03T03:26:11;2.75;2.75;2.00
73546;PMS7003;61807;48.384;-4.386;2023-04-03T03:28:37;5.50;2.00;1.25
73546;PMS7003;61807;48.384;-4.386;2023-04-03T03:31:04;4.00;4.00;3.00
73546;PMS7003;61807;48.384;-4.386;2023-04-03T03:33:30;4.75;3.00;2.25
73546;PMS7003;61807;48.384;-4.386;2023-04-03T03:35:56;7.25;4.25;2.75
73546;PMS7003;61807;48.384;-4.386;2023-04-03T03:38:22;3.00;3.00;2.00
73546;PMS7003;61807;48.384;-4.386;2023-04-03T03:40:48;3.00;3.00;2.75
73546;PMS7003;61807;48.384;-4.386;2023-04-03T03:43:15;3.75;3.00;2.00
73546;PMS7003;61807;48.384;-4.386;2023-04-03T03:45:41;4.50;3.75;3.00
73546;PMS7003;61807;48.384;-4.386;2023-04-03T03:48:06;4.25;3.75;2.75
73546;PMS7003;61807;48.384;-4.386;2023-04-03T03:50:32;5.00;3.00;3.00
73546;PMS7003;61807;48.384;-4.386;2023-04-03T03:52:58;4.25;2.00;2.00
73546;PMS7003;61807;48.384;-4.386;2023-04-03T03:55:24;3.75;3.75;3.00
73546;PMS7003;61807;48.384;-4.386;2023-04-03T03:57:50;5.00;3.00;3.00
73546;PMS7003;61807;48.384;-4.386;2023-04-03T04:00:15;3.00;2.00;2.00
73546;PMS7003;61807;48.384;-4.386;2023-04-03T04:02:41;4.50;2.75;2.25
73546;PMS7003;61807;48.384;-4.386;2023-04-03T04:05:06;2.75;1.50;1.00
73546;PMS7003;61807;48.384;-4.386;2023-04-03T04:07:32;3.50;2.25;2.00
73546;PMS7003;61807;48.384;-4.386;2023-04-03T04:09:57;3.00;3.00;2.00
73546;PMS7003;61807;48.384;-4.386;2023-04-03T04:12:23;2.50;2.50;1.75
73546;PMS7003;61807;48.384;-4.386;2023-04-03T04:14:48;4.00;2.00;2.00
73546;PMS7003;61807;48.384;-4.386;2023-04-03T04:17:13;4.25;3.00;2.25
73546;PMS7003;61807;48.384;-4.386;2023-04-03T04:19:39;2.00;2.00;1.75
73546;PMS7003;61807;48.384;-4.386;2023-04-03T04:22:05;3.00;3.00;2.00
73546;PMS7003;61807;48.384;-4.386;2023-04-03T04:24:30;2.75;2.75;2.00
73546;PMS7003;61807;48.384;-4.386;2023-04-03T04:26:56;3.00;1.25;1.00
73546;PMS7003;61807;48.384;-4.386;2023-04-03T04:29:21;2.00;2.00;2.00
73546;PMS7003;61807;48.384;-4.386;2023-04-03T04:31:46;3.00;3.00;2.25
73546;PMS7003;61807;48.384;-4.386;2023-04-03T04:34:12;2.00;2.00;2.00
73546;PMS7003;61807;48.384;-4.386;2023-04-03T04:36:40;2.25;2.00;2.00
73546;PMS7003;61807;48.384;-4.386;2023-04-03T04:39:06;3.00;3.00;2.50
73546;PMS7003;61807;48.384;-4.386;2023-04-03T04:41:31;3.00;2.00;2.00
73546;PMS7003;61807;48.384;-4.386;2023-04-03T04:43:57;6.00;3.25;3.00
73546;PMS7003;61807;48.384;-4.386;2023-04-03T04:46:23;3.25;2.75;2.00
73546;PMS7003;61807;48.384;-4.386;2023-04-03T04:48:48;2.50;2.25;2.00
73546;PMS7003;61807;48.384;-4.386;2023-04-03T04:51:14;1.50;1.50;1.25
73546;PMS7003;61807;48.384;-4.386;2023-04-03T04:53:40;3.75;2.50;1.50
73546;PMS7003;61807;48.384;-4.386;2023-04-03T04:56:06;4.50;3.50;2.75
73546;PMS7003;61807;48.384;-4.386;2023-04-03T04:58:31;3.25;2.00;2.00
73546;PMS7003;61807;48.384;-4.386;2023-04-03T05:01:01;4.25;3.00;2.25
73546;PMS7003;61807;48.384;-4.386;2023-04-03T05:03:28;3.00;3.00;2.00
73546;PMS7003;61807;48.384;-4.386;2023-04-03T05:05:54;3.00;2.00;2.00
73546;PMS7003;61807;48.384;-4.386;2023-04-03T05:08:19;4.00;3.00;2.75
73546;PMS7003;61807;48.384;-4.386;2023-04-03T05:10:45;3.25;3.00;2.00
73546;PMS7003;61807;48.384;-4.386;2023-04-03T05:13:11;5.50;4.00;2.25
73546;PMS7003;61807;48.384;-4.386;2023-04-03T05:15:37;4.00;3.75;3.00
73546;PMS7003;61807;48.384;-4.386;2023-04-03T05:18:02;5.00;2.00;1.75
73546;PMS7003;61807;48.384;-4.386;2023-04-03T05:20:28;2.50;2.50;2.00
73546;PMS7003;61807;48.384;-4.386;2023-04-03T05:22:53;3.00;3.00;2.00
73546;PMS7003;61807;48.384;-4.386;2023-04-03T05:25:18;3.75;3.25;2.00
73546;PMS7003;61807;48.384;-4.386;2023-04-03T05:27:44;3.00;3.00;2.00
73546;PMS7003;61807;48.384;-4.386;2023-04-03T05:30:10;4.50;4.50;3.00
73546;PMS7003;61807;48.384;-4.386;2023-04-03T05:32:35;4.00;3.00;3.00
73546;PMS7003;61807;48.384;-4.386;2023-04-03T05:35:01;3.75;2.00;2.00
73546;PMS7003;61807;48.384;-4.386;2023-04-03T05:37:26;4.50;2.50;2.25
73546;PMS7003;61807;48.384;-4.386;2023-04-03T05:39:52;2.75;2.00;1.75
73546;PMS7003;61807;48.384;-4.386;2023-04-03T05:42:17;4.50;3.50;3.00
73546;PMS7003;61807;48.384;-4.386;2023-04-03T05:44:43;8.75;3.00;3.00
73546;PMS7003;61807;48.384;-4.386;2023-04-03T05:47:09;3.00;2.25;2.25
73546;PMS7003;61807;48.384;-4.386;2023-04-03T05:49:34;5.75;3.50;3.00
73546;PMS7003;61807;48.384;-4.386;2023-04-03T05:52:00;2.00;0.75;0.25
73546;PMS7003;61807;48.384;-4.386;2023-04-03T05:54:27;3.25;3.25;3.00
73546;PMS7003;61807;48.384;-4.386;2023-04-03T05:56:54;6.75;4.75;3.75
73546;PMS7003;61807;48.384;-4.386;2023-04-03T05:59:19;4.00;2.00;2.00
73546;PMS7003;61807;48.384;-4.386;2023-04-03T06:01:45;3.00;3.00;2.25
73546;PMS7003;61807;48.384;-4.386;2023-04-03T06:04:11;5.00;2.75;2.00
73546;PMS7003;61807;48.384;-4.386;2023-04-03T06:09:11;5.00;4.00;3.00
73546;PMS7003;61807;48.384;-4.386;2023-04-03T06:11:37;3.25;3.25;3.00
73546;PMS7003;61807;48.384;-4.386;2023-04-03T06:14:02;3.50;2.75;2.00
73546;PMS7003;61807;48.384;-4.386;2023-04-03T06:16:28;4.00;3.00;3.00
73546;PMS7003;61807;48.384;-4.386;2023-04-03T06:18:53;7.75;4.00;3.00
73546;PMS7003;61807;48.384;-4.386;2023-04-03T06:21:21;4.00;4.00;3.00
73546;PMS7003;61807;48.384;-4.386;2023-04-03T06:23:46;8.50;3.75;3.00
73546;PMS7003;61807;48.384;-4.386;2023-04-03T06:26:12;8.50;3.25;3.00
73546;PMS7003;61807;48.384;-4.386;2023-04-03T06:28:37;4.00;4.00;3.00
73546;PMS7003;61807;48.384;-4.386;2023-04-03T06:31:02;3.00;3.00;3.00
73546;PMS7003;61807;48.384;-4.386;2023-04-03T06:33:28;3.50;3.50;3.00
73546;PMS7003;61807;48.384;-4.386;2023-04-03T06:35:59;4.75;4.75;2.75
73546;PMS7003;61807;48.384;-4.386;2023-04-03T06:38:29;3.00;3.00;2.00
73546;PMS7003;61807;48.384;-4.386;2023-04-03T06:40:55;3.25;3.00;3.00
73546;PMS7003;61807;48.384;-4.386;2023-04-03T06:43:21;4.00;4.00;2.50
73546;PMS7003;61807;48.384;-4.386;2023-04-03T06:45:46;7.50;3.75;3.00
73546;PMS7003;61807;48.384;-4.386;2023-04-03T06:48:12;4.25;2.00;1.00
73546;PMS7003;61807;48.384;-4.386;2023-04-03T06:50:38;7.50;3.00;2.50
73546;PMS7003;61807;48.384;-4.386;2023-04-03T06:53:03;3.75;2.75;2.75
73546;PMS7003;61807;48.384;-4.386;2023-04-03T06:55:29;3.25;3.25;3.00
73546;PMS7003;61807;48.384;-4.386;2023-04-03T06:57:55;5.25;5.25;4.00
73546;PMS7003;61807;48.384;-4.386;2023-04-03T07:00:20;5.25;4.00;3.00
73546;PMS7003;61807;48.384;-4.386;2023-04-03T07:02:46;6.00;4.50;3.25
73546;PMS7003;61807;48.384;-4.386;2023-04-03T07:05:12;2.25;2.25;2.00
73546;PMS7003;61807;48.384;-4.386;2023-04-03T07:07:38;4.00;3.00;2.75
73546;PMS7003;61807;48.384;-4.386;2023-04-03T07:10:04;3.75;3.50;3.00
73546;PMS7003;61807;48.384;-4.386;2023-04-03T07:12:31;2.00;2.00;2.00
73546;PMS7003;61807;48.384;-4.386;2023-04-03T07:14:56;7.00;3.25;2.75
73546;PMS7003;61807;48.384;-4.386;2023-04-03T07:17:22;10.00;4.00;3.00
73546;PMS7003;61807;48.384;-4.386;2023-04-03T07:19:47;4.00;4.00;3.75
73546;PMS7003;61807;48.384;-4.386;2023-04-03T07:22:13;7.25;4.00;3.25
73546;PMS7003;61807;48.384;-4.386;2023-04-03T07:24:38;4.00;4.00;3.00
73546;PMS7003;61807;48.384;-4.386;2023-04-03T07:27:04;8.75;5.00;3.00
73546;PMS7003;61807;48.384;-4.386;2023-04-03T07:29:30;6.75;4.25;3.25
73546;PMS7003;61807;48.384;-4.386;2023-04-03T07:31:55;7.50;5.00;3.50
73546;PMS7003;61807;48.384;-4.386;2023-04-03T07:34:21;9.00;4.00;3.00
73546;PMS7003;61807;48.384;-4.386;2023-04-03T07:36:47;7.75;4.00;3.00
73546;PMS7003;61807;48.384;-4.386;2023-04-03T07:39:13;3.50;2.25;2.00
73546;PMS7003;61807;48.384;-4.386;2023-04-03T07:41:38;6.25;3.00;3.00
73546;PMS7003;61807;48.384;-4.386;2023-04-03T07:44:04;5.25;3.00;2.00
73546;PMS7003;61807;48.384;-4.386;2023-04-03T07:46:30;5.00;5.00;3.00
73546;PMS7003;61807;48.384;-4.386;2023-04-03T07:48:56;5.50;3.75;2.75
73546;PMS7003;61807;48.384;-4.386;2023-04-03T07:51:21;5.75;2.75;2.50
73546;PMS7003;61807;48.384;-4.386;2023-04-03T07:53:47;4.50;3.00;2.25
73546;PMS7003;61807;48.384;-4.386;2023-04-03T07:56:13;4.00;4.00;2.25
73546;PMS7003;61807;48.384;-4.386;2023-04-03T07:58:38;2.00;2.00;2.00
73546;PMS7003;61807;48.384;-4.386;2023-04-03T08:01:04;8.00;4.00;3.00
73546;PMS7003;61807;48.384;-4.386;2023-04-03T08:03:29;4.75;4.00;3.25
73546;PMS7003;61807;48.384;-4.386;2023-04-03T08:05:55;2.25;2.25;2.00
73546;PMS7003;61807;48.384;-4.386;2023-04-03T08:08:28;2.75;2.75;2.00
73546;PMS7003;61807;48.384;-4.386;2023-04-03T08:10:58;3.00;2.75;1.75
73546;PMS7003;61807;48.384;-4.386;2023-04-03T08:13:25;4.00;3.50;2.50
73546;PMS7003;61807;48.384;-4.386;2023-04-03T08:15:51;4.00;2.25;2.00
73546;PMS7003;61807;48.384;-4.386;2023-04-03T08:18:17;2.50;2.00;1.75
73546;PMS7003;61807;48.384;-4.386;2023-04-03T08:20:43;6.00;2.00;1.25
73546;PMS7003;61807;48.384;-4.386;2023-04-03T08:23:09;6.25;1.75;1.50
73546;PMS7003;61807;48.384;-4.386;2023-04-03T08:25:39;2.00;2.00;2.00
73546;PMS7003;61807;48.384;-4.386;2023-04-03T08:28:06;6.00;3.50;2.00
73546;PMS7003;61807;48.384;-4.386;2023-04-03T08:30:31;4.00;4.00;2.25
73546;PMS7003;61807;48.384;-4.386;2023-04-03T08:32:59;8.75;2.25;2.00
73546;PMS7003;61807;48.384;-4.386;2023-04-03T08:35:26;4.75;2.00;1.75
73546;PMS7003;61807;48.384;-4.386;2023-04-03T08:37:51;3.00;2.00;1.50
73546;PMS7003;61807;48.384;-4.386;2023-04-03T08:40:16;4.00;4.00;2.75
73546;PMS7003;61807;48.384;-4.386;2023-04-03T08:48:20;3.50;2.50;2.00
73546;PMS7003;61807;48.384;-4.386;2023-04-03T08:50:50;4.75;2.00;2.00
73546;PMS7003;61807;48.384;-4.386;2023-04-03T08:53:23;4.25;2.50;2.00
73546;PMS7003;61807;48.384;-4.386;2023-04-03T08:55:53;5.00;4.00;2.50
73546;PMS7003;61807;48.384;-4.386;2023-04-03T08:58:21;3.00;1.25;1.00
73546;PMS7003;61807;48.384;-4.386;2023-04-03T09:00:56;6.00;2.00;1.00
73546;PMS7003;61807;48.384;-4.386;2023-04-03T09:03:28;4.00;3.00;2.00
73546;PMS7003;61807;48.384;-4.386;2023-04-03T09:08:33;8.00;4.00;3.00
73546;PMS7003;61807;48.384;-4.386;2023-04-03T09:11:26;3.75;1.00;0.00
73546;PMS7003;61807;48.384;-4.386;2023-04-03T09:14:07;3.25;3.00;2.25
73546;PMS7003;61807;48.384;-4.386;2023-04-03T09:16:52;5.50;3.00;2.00
73546;PMS7003;61807;48.384;-4.386;2023-04-03T09:24:38;2.50;1.00;1.00
73546;PMS7003;61807;48.384;-4.386;2023-04-03T09:27:06;6.75;4.25;2.25
73546;PMS7003;61807;48.384;-4.386;2023-04-03T09:29:37;3.00;2.25;2.00
73546;PMS7003;61807;48.384;-4.386;2023-04-03T09:34:52;4.50;3.00;2.75
73546;PMS7003;61807;48.384;-4.386;2023-04-03T09:37:40;5.00;3.25;2.75
73546;PMS7003;61807;48.384;-4.386;2023-04-03T09:40:50;3.00;2.50;2.00
73546;PMS7003;61807;48.384;-4.386;2023-04-03T09:43:18;4.50;3.50;3.25
73546;PMS7003;61807;48.384;-4.386;2023-04-03T09:45:48;4.25;3.00;3.00
73546;PMS7003;61807;48.384;-4.386;2023-04-03T09:48:16;5.75;4.00;2.00
73546;PMS7003;61807;48.384;-4.386;2023-04-03T09:58:42;5.00;4.00;2.25
73546;PMS7003;61807;48.384;-4.386;2023-04-03T10:12:20;2.00;2.00;1.25
73546;PMS7003;61807;48.384;-4.386;2023-04-03T10:15:00;6.50;3.00;2.00
73546;PMS7003;61807;48.384;-4.386;2023-04-03T10:17:36;5.75;4.00;3.00
73546;PMS7003;61807;48.384;-4.386;2023-04-03T10:20:23;2.00;2.00;1.75
73546;PMS7003;61807;48.384;-4.386;2023-04-03T10:31:46;2.25;2.25;1.75
73546;PMS7003;61807;48.384;-4.386;2023-04-03T10:53:49;2.75;2.00;1.00
73546;PMS7003;61807;48.384;-4.386;2023-04-03T10:59:40;5.00;2.00;1.00
73546;PMS7003;61807;48.384;-4.386;2023-04-03T11:02:11;1.50;1.50;1.00
73546;PMS7003;61807;48.384;-4.386;2023-04-03T11:04:40;4.00;0.75;0.50
73546;PMS7003;61807;48.384;-4.386;2023-04-03T11:09:40;1.00;1.00;1.00
73546;PMS7003;61807;48.384;-4.386;2023-04-03T11:14:53;3.25;3.00;2.00
73546;PMS7003;61807;48.384;-4.386;2023-04-03T11:17:30;1.50;1.00;0.25
73546;PMS7003;61807;48.384;-4.386;2023-04-03T11:22:53;4.50;1.00;1.00
73546;PMS7003;61807;48.384;-4.386;2023-04-03T11:25:25;3.00;1.75;1.00
73546;PMS7003;61807;48.384;-4.386;2023-04-03T11:27:58;1.25;1.25;1.00
73546;PMS7003;61807;48.384;-4.386;2023-04-03T11:36:24;2.00;1.00;1.00
73546;PMS7003;61807;48.384;-4.386;2023-04-03T11:39:00;1.00;1.00;1.00
73546;PMS7003;61807;48.384;-4.386;2023-04-03T11:41:40;3.00;1.00;1.00
73546;PMS7003;61807;48.384;-4.386;2023-04-03T11:44:23;3.75;1.00;1.00
73546;PMS7003;61807;48.384;-4.386;2023-04-03T11:46:59;2.25;1.00;0.00
73546;PMS7003;61807;48.384;-4.386;2023-04-03T12:05:53;2.00;1.00;0.25
73546;PMS7003;61807;48.384;-4.386;2023-04-03T12:48:48;1.50;0.00;0.00
73546;PMS7003;61807;48.384;-4.386;2023-04-03T12:51:19;1.25;0.75;0.50
73546;PMS7003;61807;48.384;-4.386;2023-04-03T12:53:51;2.00;0.00;0.00
73546;PMS7003;61807;48.384;-4.386;2023-04-03T12:58:47;1.00;1.00;0.00
73546;PMS7003;61807;48.384;-4.386;2023-04-03T13:01:17;1.00;1.00;1.00
73546;PMS7003;61807;48.384;-4.386;2023-04-03T13:03:50;1.00;1.00;1.00
73546;PMS7003;61807;48.384;-4.386;2023-04-03T13:06:28;3.00;1.00;1.00
73546;PMS7003;61807;48.384;-4.386;2023-04-03T13:08:58;3.00;1.00;1.00
73546;PMS7003;61807;48.384;-4.386;2023-04-03T13:11:26;1.00;1.00;1.00
73546;PMS7003;61807;48.384;-4.386;2023-04-03T13:13:58;0.50;0.25;0.00
73546;PMS7003;61807;48.384;-4.386;2023-04-03T13:16:25;2.00;1.00;1.00
73546;PMS7003;61807;48.384;-4.386;2023-04-03T13:18:52;1.00;1.00;1.00
73546;PMS7003;61807;48.384;-4.386;2023-04-03T13:21:19;1.25;0.50;0.00
73546;PMS7003;61807;48.384;-4.386;2023-04-03T13:23:50;2.25;1.00;1.00
73546;PMS7003;61807;48.384;-4.386;2023-04-03T13:26:18;0.00;0.00;0.00
73546;PMS7003;61807;48.384;-4.386;2023-04-03T13:28:46;1.75;0.00;0.00
73546;PMS7003;61807;48.384;-4.386;2023-04-03T13:33:39;2.50;1.00;1.00
73546;PMS7003;61807;48.384;-4.386;2023-04-03T13:36:21;5.75;1.50;1.00
73546;PMS7003;61807;48.384;-4.386;2023-04-03T13:38:59;1.00;1.00;1.00
73546;PMS7003;61807;48.384;-4.386;2023-04-03T13:41:27;1.00;1.00;0.00
73546;PMS7003;61807;48.384;-4.386;2023-04-03T13:43:55;2.25;1.00;1.00
73546;PMS7003;61807;48.384;-4.386;2023-04-03T13:46:27;1.75;1.00;0.25
73546;PMS7003;61807;48.384;-4.386;2023-04-03T13:48:54;1.00;1.00;1.00
73546;PMS7003;61807;48.384;-4.386;2023-04-03T13:51:23;2.75;1.00;0.00
73546;PMS7003;61807;48.384;-4.386;2023-04-03T13:56:26;1.25;1.25;1.00
73546;PMS7003;61807;48.384;-4.386;2023-04-03T13:59:00;4.50;2.00;1.00
73546;PMS7003;61807;48.384;-4.386;2023-04-03T14:02:30;3.75;1.00;1.00
73546;PMS7003;61807;48.384;-4.386;2023-04-03T14:07:05;4.00;1.00;1.00
73546;PMS7003;61807;48.384;-4.386;2023-04-03T14:09:30;1.25;1.00;1.00
73546;PMS7003;61807;48.384;-4.386;2023-04-03T14:12:00;4.25;1.50;1.25
73546;PMS7003;61807;48.384;-4.386;2023-04-03T14:14:32;2.75;2.50;2.00
73546;PMS7003;61807;48.384;-4.386;2023-04-03T14:17:00;4.50;0.75;0.50
73546;PMS7003;61807;48.384;-4.386;2023-04-03T14:19:30;1.50;1.00;1.00
73546;PMS7003;61807;48.384;-4.386;2023-04-03T14:22:00;5.25;1.00;1.00
73546;PMS7003;61807;48.384;-4.386;2023-04-03T14:24:31;4.00;2.25;2.00
73546;PMS7003;61807;48.384;-4.386;2023-04-03T14:26:57;2.00;2.00;2.00
73546;PMS7003;61807;48.384;-4.386;2023-04-03T14:29:22;1.50;1.50;1.50
73546;PMS7003;61807;48.384;-4.386;2023-04-03T14:31:49;2.00;1.00;1.00
73546;PMS7003;61807;48.384;-4.386;2023-04-03T14:34:15;2.00;2.00;2.00
73546;PMS7003;61807;48.384;-4.386;2023-04-03T14:36:42;2.50;0.75;0.25
73546;PMS7003;61807;48.384;-4.386;2023-04-03T14:39:16;2.75;1.00;1.00
73546;PMS7003;61807;48.384;-4.386;2023-04-03T14:41:43;1.00;1.00;1.00
73546;PMS7003;61807;48.384;-4.386;2023-04-03T14:44:09;3.50;1.00;0.25
73546;PMS7003;61807;48.384;-4.386;2023-04-03T14:46:35;8.50;3.00;2.00
73546;PMS7003;61807;48.384;-4.386;2023-04-03T14:49:05;2.00;1.00;1.00
73546;PMS7003;61807;48.384;-4.386;2023-04-03T14:51:39;0.50;0.00;0.00
73546;PMS7003;61807;48.384;-4.386;2023-04-03T14:54:05;4.75;1.75;1.25
73546;PMS7003;61807;48.384;-4.386;2023-04-03T14:56:35;3.25;1.00;0.25
73546;PMS7003;61807;48.384;-4.386;2023-04-03T14:59:01;3.25;1.00;1.00
73546;PMS7003;61807;48.384;-4.386;2023-04-03T15:01:27;7.25;1.75;1.00
73546;PMS7003;61807;48.384;-4.386;2023-04-03T15:03:53;5.75;2.75;2.25
73546;PMS7003;61807;48.384;-4.386;2023-04-03T15:06:18;5.75;3.00;2.25
73546;PMS7003;61807;48.384;-4.386;2023-04-03T15:08:45;34.25;22.75;9.00
73546;PMS7003;61807;48.384;-4.386;2023-04-03T15:11:12;1.50;1.50;1.50
73546;PMS7003;61807;48.384;-4.386;2023-04-03T15:13:39;7.25;2.25;1.25
73546;PMS7003;61807;48.384;-4.386;2023-04-03T15:16:06;5.25;3.25;2.00
73546;PMS7003;61807;48.384;-4.386;2023-04-03T15:18:40;16.00;12.00;6.00
73546;PMS7003;61807;48.384;-4.386;2023-04-03T15:21:06;23.75;11.50;5.50
73546;PMS7003;61807;48.384;-4.386;2023-04-03T15:23:31;7.25;4.00;3.00
73546;PMS7003;61807;48.384;-4.386;2023-04-03T15:25:57;4.75;3.75;3.00
73546;PMS7003;61807;48.384;-4.386;2023-04-03T15:28:24;5.50;1.50;1.00
73546;PMS7003;61807;48.384;-4.386;2023-04-03T15:31:09;2.25;2.25;2.00
73546;PMS7003;61807;48.384;-4.386;2023-04-03T15:33:35;22.00;14.75;7.00
73546;PMS7003;61807;48.384;-4.386;2023-04-03T15:36:01;4.00;4.00;3.50
73546;PMS7003;61807;48.384;-4.386;2023-04-03T15:38:27;9.00;6.00;4.00
73546;PMS7003;61807;48.384;-4.386;2023-04-03T15:40:53;20.00;10.75;5.75
73546;PMS7003;61807;48.384;-4.386;2023-04-03T15:43:20;2.75;2.75;2.00
73546;PMS7003;61807;48.384;-4.386;2023-04-03T15:45:45;4.25;3.00;2.00
73546;PMS7003;61807;48.384;-4.386;2023-04-03T15:48:11;3.00;2.00;1.25
73546;PMS7003;61807;48.384;-4.386;2023-04-03T15:50:38;5.00;2.00;1.00
73546;PMS7003;61807;48.384;-4.386;2023-04-03T15:53:04;4.25;3.00;2.00
73546;PMS7003;61807;48.384;-4.386;2023-04-03T15:55:30;2.50;2.50;2.00
73546;PMS7003;61807;48.384;-4.386;2023-04-03T15:57:57;4.50;4.50;3.00
73546;PMS7003;61807;48.384;-4.386;2023-04-03T16:00:24;3.75;3.00;2.00
73546;PMS7003;61807;48.384;-4.386;2023-04-03T16:02:53;6.00;3.00;3.00
73546;PMS7003;61807;48.384;-4.386;2023-04-03T16:05:23;6.25;3.00;2.25
73546;PMS7003;61807;48.384;-4.386;2023-04-03T16:07:49;6.00;4.50;4.00
73546;PMS7003;61807;48.384;-4.386;2023-04-03T16:10:15;6.00;2.75;2.50
73546;PMS7003;61807;48.384;-4.386;2023-04-03T16:12:43;4.25;2.00;2.00
73546;PMS7003;61807;48.384;-4.386;2023-04-03T16:15:09;5.25;3.75;3.00
73546;PMS7003;61807;48.384;-4.386;2023-04-03T16:17:35;6.25;3.00;3.00
73546;PMS7003;61807;48.384;-4.386;2023-04-03T16:20:02;6.00;5.25;4.00
73546;PMS7003;61807;48.384;-4.386;2023-04-03T16:22:30;2.00;2.00;2.00
73546;PMS7003;61807;48.384;-4.386;2023-04-03T16:24:55;2.00;2.00;2.00
73546;PMS7003;61807;48.384;-4.386;2023-04-03T16:27:22;5.50;2.50;2.00
73546;PMS7003;61807;48.384;-4.386;2023-04-03T16:29:52;4.25;3.00;2.00
73546;PMS7003;61807;48.384;-4.386;2023-04-03T16:32:18;3.00;3.00;3.00
73546;PMS7003;61807;48.384;-4.386;2023-04-03T16:34:43;13.00;5.75;3.75
73546;PMS7003;61807;48.384;-4.386;2023-04-03T16:37:08;5.00;2.00;2.00
73546;PMS7003;61807;48.384;-4.386;2023-04-03T16:39:34;8.00;4.75;3.00
73546;PMS7003;61807;48.384;-4.386;2023-04-03T16:42:00;7.75;6.25;5.00
73546;PMS7003;61807;48.384;-4.386;2023-04-03T16:44:26;8.00;4.00;3.00
73546;PMS7003;61807;48.384;-4.386;2023-04-03T16:46:52;4.75;4.00;3.25